sensor_id;sensor_type;location;lat;lon;timestamp;temperature;humidity
16267;DHT22;8241;48.786;9.250;2023-05-07T00:01:25;16.10;99.90
16267;DHT22;8241;48.786;9.250;2023-05-07T00:03:53;16.10;99.90
16267;DHT22;8241;48.786;9.250;2023-05-07T00:06:20;16.10;99.90
16267;DHT22;8241;48.786;9.250;2023-05-07T00:08:48;16.10;99.90
16267;DHT22;8241;48.786;9.250;2023-05-07T00:11:16;16.00;99.90
16267;DHT22;8241;48.786;9.250;2023-05-07T00:13:43;16.00;99.90
16267;DHT22;8241;48.786;9.250;2023-05-07T00:16:10;15.90;99.90
16267;DHT22;8241;48.786;9.250;2023-05-07T00:18:37;15.90;99.90
16267;DHT22;8241;48.786;9.250;2023-05-07T00:21:04;15.90;99.90
16267;DHT22;8241;48.786;9.250;2023-05-07T00:23:31;15.70;99.90
16267;DHT22;8241;48.786;9.250;2023-05-07T00:25:59;15.80;99.90
16267;DHT22;8241;48.786;9.250;2023-05-07T00:28:26;15.70;99.90
16267;DHT22;8241;48.786;9.250;2023-05-07T00:30:54;15.60;99.90
16267;DHT22;8241;48.786;9.250;2023-05-07T00:33:21;15.60;99.90
16267;DHT22;8241;48.786;9.250;2023-05-07T00:35:48;15.70;99.90
16267;DHT22;8241;48.786;9.250;2023-05-07T00:38:15;15.70;99.90
16267;DHT22;8241;48.786;9.250;2023-05-07T00:40:42;15.70;99.90
16267;DHT22;8241;48.786;9.250;2023-05-07T00:43:10;15.50;99.90
16267;DHT22;8241;48.786;9.250;2023-05-07T00:45:38;15.60;99.90
16267;DHT22;8241;48.786;9.250;2023-05-07T00:48:05;15.60;99.90
16267;DHT22;8241;48.786;9.250;2023-05-07T00:50:32;15.60;99.90
16267;DHT22;8241;48.786;9.250;2023-05-07T00:53:03;15.40;99.90
16267;DHT22;8241;48.786;9.250;2023-05-07T00:55:30;15.40;99.90
16267;DHT22;8241;48.786;9.250;2023-05-07T00:57:57;15.40;99.90
16267;DHT22;8241;48.786;9.250;2023-05-07T01:00:25;15.40;99.90
16267;DHT22;8241;48.786;9.250;2023-05-07T01:02:52;15.40;99.90
16267;DHT22;8241;48.786;9.250;2023-05-07T01:05:20;15.40;99.90
16267;DHT22;8241;48.786;9.250;2023-05-07T01:07:47;15.40;99.90
16267;DHT22;8241;48.786;9.250;2023-05-07T01:10:15;15.30;99.90
16267;DHT22;8241;48.786;9.250;2023-05-07T01:12:42;15.30;99.90
16267;DHT22;8241;48.786;9.250;2023-05-07T01:15:12;15.30;99.90
16267;DHT22;8241;48.786;9.250;2023-05-07T01:17:40;15.30;99.90
16267;DHT22;8241;48.786;9.250;2023-05-07T01:20:13;15.20;99.90
16267;DHT22;8241;48.786;9.250;2023-05-07T01:22:45;15.20;99.90
16267;DHT22;8241;48.786;9.250;2023-05-07T01:25:13;15.20;99.90
16267;DHT22;8241;48.786;9.250;2023-05-07T01:30:13;15.20;99.90
16267;DHT22;8241;48.786;9.250;2023-05-07T01:32:41;15.20;99.90
16267;DHT22;8241;48.786;9.250;2023-05-07T01:35:09;15.30;99.90
16267;DHT22;8241;48.786;9.250;2023-05-07T01:37:37;15.10;99.90
16267;DHT22;8241;48.786;9.250;2023-05-07T01:47:28;15.10;99.90
16267;DHT22;8241;48.786;9.250;2023-05-07T01:49:55;15.10;99.90
16267;DHT22;8241;48.786;9.250;2023-05-07T01:52:22;15.00;99.90
16267;DHT22;8241;48.786;9.250;2023-05-07T01:54:50;15.00;99.90
16267;DHT22;8241;48.786;9.250;2023-05-07T01:57:17;14.90;99.90
16267;DHT22;8241;48.786;9.250;2023-05-07T01:59:46;14.90;99.90
16267;DHT22;8241;48.786;9.250;2023-05-07T02:02:13;14.90;99.90
16267;DHT22;8241;48.786;9.250;2023-05-07T02:04:43;14.90;99.90
16267;DHT22;8241;48.786;9.250;2023-05-07T02:07:11;14.90;99.90
16267;DHT22;8241;48.786;9.250;2023-05-07T02:09:38;14.80;99.90
16267;DHT22;8241;48.786;9.250;2023-05-07T02:12:05;14.80;99.90
16267;DHT22;8241;48.786;9.250;2023-05-07T02:14:33;14.80;99.90
16267;DHT22;8241;48.786;9.250;2023-05-07T02:17:00;14.90;99.90
16267;DHT22;8241;48.786;9.250;2023-05-07T02:19:27;14.60;99.90
16267;DHT22;8241;48.786;9.250;2023-05-07T02:21:55;14.70;99.90
16267;DHT22;8241;48.786;9.250;2023-05-07T02:24:22;14.70;99.90
16267;DHT22;8241;48.786;9.250;2023-05-07T02:26:49;14.70;99.90
16267;DHT22;8241;48.786;9.250;2023-05-07T02:29:17;14.70;99.90
16267;DHT22;8241;48.786;9.250;2023-05-07T02:34:16;14.60;99.90
16267;DHT22;8241;48.786;9.250;2023-05-07T02:36:43;14.60;99.90
16267;DHT22;8241;48.786;9.250;2023-05-07T02:39:14;14.60;99.90
16267;DHT22;8241;48.786;9.250;2023-05-07T02:41:41;14.60;99.90
16267;DHT22;8241;48.786;9.250;2023-05-07T02:44:09;14.60;99.90
16267;DHT22;8241;48.786;9.250;2023-05-07T02:46:37;14.60;99.90
16267;DHT22;8241;48.786;9.250;2023-05-07T02:49:08;14.60;99.90
16267;DHT22;8241;48.786;9.250;2023-05-07T02:51:35;14.60;99.90
16267;DHT22;8241;48.786;9.250;2023-05-07T02:54:06;14.40;99.90
16267;DHT22;8241;48.786;9.250;2023-05-07T02:56:34;14.30;99.90
16267;DHT22;8241;48.786;9.250;2023-05-07T02:59:01;14.30;99.90
16267;DHT22;8241;48.786;9.250;2023-05-07T03:01:32;14.40;99.90
16267;DHT22;8241;48.786;9.250;2023-05-07T03:04:04;14.40;99.90
16267;DHT22;8241;48.786;9.250;2023-05-07T03:06:31;14.10;99.90
16267;DHT22;8241;48.786;9.250;2023-05-07T03:08:58;14.20;99.90
16267;DHT22;8241;48.786;9.250;2023-05-07T03:11:25;14.20;99.90
16267;DHT22;8241;48.786;9.250;2023-05-07T03:13:53;14.10;99.90
16267;DHT22;8241;48.786;9.250;2023-05-07T03:16:21;14.20;99.90
16267;DHT22;8241;48.786;9.250;2023-05-07T03:18:48;14.20;99.90
16267;DHT22;8241;48.786;9.250;2023-05-07T03:21:15;14.10;99.90
16267;DHT22;8241;48.786;9.250;2023-05-07T03:23:42;14.10;99.90
16267;DHT22;8241;48.786;9.250;2023-05-07T03:26:08;14.00;99.90
16267;DHT22;8241;48.786;9.250;2023-05-07T03:28:36;14.00;99.90
16267;DHT22;8241;48.786;9.250;2023-05-07T03:31:08;14.00;99.90
16267;DHT22;8241;48.786;9.250;2023-05-07T03:33:34;14.00;99.90
16267;DHT22;8241;48.786;9.250;2023-05-07T03:36:02;13.90;99.90
16267;DHT22;8241;48.786;9.250;2023-05-07T03:38:29;13.80;99.90
16267;DHT22;8241;48.786;9.250;2023-05-07T03:40:56;13.70;99.90
16267;DHT22;8241;48.786;9.250;2023-05-07T03:43:23;13.60;99.90
16267;DHT22;8241;48.786;9.250;2023-05-07T03:45:57;13.70;99.90
16267;DHT22;8241;48.786;9.250;2023-05-07T03:48:28;13.80;99.90
16267;DHT22;8241;48.786;9.250;2023-05-07T03:50:57;13.80;99.90
16267;DHT22;8241;48.786;9.250;2023-05-07T03:53:27;13.70;99.90
16267;DHT22;8241;48.786;9.250;2023-05-07T03:55:54;13.80;99.90
16267;DHT22;8241;48.786;9.250;2023-05-07T03:58:21;13.80;99.90
16267;DHT22;8241;48.786;9.250;2023-05-07T04:00:48;13.80;99.90
16267;DHT22;8241;48.786;9.250;2023-05-07T04:03:22;13.70;99.90
16267;DHT22;8241;48.786;9.250;2023-05-07T04:05:50;13.70;99.90
16267;DHT22;8241;48.786;9.250;2023-05-07T04:08:17;13.70;99.90
16267;DHT22;8241;48.786;9.250;2023-05-07T04:10:47;13.70;99.90
16267;DHT22;8241;48.786;9.250;2023-05-07T04:13:14;13.60;99.90
16267;DHT22;8241;48.786;9.250;2023-05-07T04:15:41;13.60;99.90
16267;DHT22;8241;48.786;9.250;2023-05-07T04:18:10;13.60;99.90
16267;DHT22;8241;48.786;9.250;2023-05-07T04:20:39;13.60;99.90
16267;DHT22;8241;48.786;9.250;2023-05-07T04:23:11;13.70;99.90
16267;DHT22;8241;48.786;9.250;2023-05-07T04:25:39;13.70;99.90
16267;DHT22;8241;48.786;9.250;2023-05-07T04:28:17;13.70;99.90
16267;DHT22;8241;48.786;9.250;2023-05-07T04:30:44;13.70;99.90
16267;DHT22;8241;48.786;9.250;2023-05-07T04:33:11;13.80;99.90
16267;DHT22;8241;48.786;9.250;2023-05-07T04:35:40;13.80;99.90
16267;DHT22;8241;48.786;9.250;2023-05-07T04:38:07;13.80;99.90
16267;DHT22;8241;48.786;9.250;2023-05-07T04:40:36;13.80;99.90
16267;DHT22;8241;48.786;9.250;2023-05-07T04:43:04;13.80;99.90
16267;DHT22;8241;48.786;9.250;2023-05-07T04:45:39;13.90;99.90
16267;DHT22;8241;48.786;9.250;2023-05-07T04:48:08;13.90;99.90
16267;DHT22;8241;48.786;9.250;2023-05-07T04:50:38;13.90;99.90
16267;DHT22;8241;48.786;9.250;2023-05-07T04:53:05;13.80;99.90
16267;DHT22;8241;48.786;9.250;2023-05-07T04:55:33;13.90;99.90
16267;DHT22;8241;48.786;9.250;2023-05-07T04:58:02;13.80;99.90
16267;DHT22;8241;48.786;9.250;2023-05-07T05:00:33;14.00;99.90
16267;DHT22;8241;48.786;9.250;2023-05-07T05:12:53;15.20;99.90
16267;DHT22;8241;48.786;9.250;2023-05-07T05:17:53;14.10;99.90
16267;DHT22;8241;48.786;9.250;2023-05-07T05:20:28;14.00;99.90
16267;DHT22;8241;48.786;9.250;2023-05-07T05:22:56;14.20;99.90
16267;DHT22;8241;48.786;9.250;2023-05-07T05:25:25;14.20;99.90
16267;DHT22;8241;48.786;9.250;2023-05-07T05:35:20;14.20;99.90
16267;DHT22;8241;48.786;9.250;2023-05-07T05:37:48;14.10;99.90
16267;DHT22;8241;48.786;9.250;2023-05-07T05:40:16;14.10;99.90
16267;DHT22;8241;48.786;9.250;2023-05-07T05:42:45;14.40;99.90
16267;DHT22;8241;48.786;9.250;2023-05-07T05:45:13;14.50;99.90
16267;DHT22;8241;48.786;9.250;2023-05-07T05:47:42;14.60;99.90
16267;DHT22;8241;48.786;9.250;2023-05-07T05:50:12;14.60;99.90
16267;DHT22;8241;48.786;9.250;2023-05-07T05:52:42;14.70;99.90
16267;DHT22;8241;48.786;9.250;2023-05-07T05:55:11;14.80;99.90
16267;DHT22;8241;48.786;9.250;2023-05-07T05:57:38;14.70;99.90
16267;DHT22;8241;48.786;9.250;2023-05-07T06:00:05;14.80;99.90
16267;DHT22;8241;48.786;9.250;2023-05-07T06:02:44;14.70;99.90
16267;DHT22;8241;48.786;9.250;2023-05-07T06:05:16;14.80;99.90
16267;DHT22;8241;48.786;9.250;2023-05-07T06:07:47;14.80;99.90
16267;DHT22;8241;48.786;9.250;2023-05-07T06:10:14;15.10;99.90
16267;DHT22;8241;48.786;9.250;2023-05-07T06:12:41;15.50;99.90
16267;DHT22;8241;48.786;9.250;2023-05-07T06:15:09;15.80;99.90
16267;DHT22;8241;48.786;9.250;2023-05-07T06:17:36;16.00;99.90
16267;DHT22;8241;48.786;9.250;2023-05-07T06:20:03;16.20;99.90
16267;DHT22;8241;48.786;9.250;2023-05-07T06:22:30;16.20;99.90
16267;DHT22;8241;48.786;9.250;2023-05-07T06:24:58;16.30;99.90
16267;DHT22;8241;48.786;9.250;2023-05-07T06:27:25;16.30;99.90
16267;DHT22;8241;48.786;9.250;2023-05-07T06:29:53;16.20;99.90
16267;DHT22;8241;48.786;9.250;2023-05-07T06:32:20;16.20;99.90
16267;DHT22;8241;48.786;9.250;2023-05-07T06:34:48;16.20;99.90
16267;DHT22;8241;48.786;9.250;2023-05-07T06:37:15;16.30;99.90
16267;DHT22;8241;48.786;9.250;2023-05-07T06:40:04;16.40;99.90
16267;DHT22;8241;48.786;9.250;2023-05-07T06:42:33;16.40;99.90
16267;DHT22;8241;48.786;9.250;2023-05-07T06:45:17;16.60;99.90
16267;DHT22;8241;48.786;9.250;2023-05-07T06:47:43;16.90;99.90
16267;DHT22;8241;48.786;9.250;2023-05-07T06:50:10;17.20;99.90
16267;DHT22;8241;48.786;9.250;2023-05-07T06:52:38;17.50;99.90
16267;DHT22;8241;48.786;9.250;2023-05-07T06:55:08;17.50;99.90
16267;DHT22;8241;48.786;9.250;2023-05-07T06:57:35;17.60;99.90
16267;DHT22;8241;48.786;9.250;2023-05-07T07:00:02;17.80;99.90
16267;DHT22;8241;48.786;9.250;2023-05-07T07:02:32;18.10;99.90
16267;DHT22;8241;48.786;9.250;2023-05-07T07:04:59;18.40;99.30
16267;DHT22;8241;48.786;9.250;2023-05-07T07:07:26;18.90;98.60
16267;DHT22;8241;48.786;9.250;2023-05-07T07:09:53;19.10;98.40
16267;DHT22;8241;48.786;9.250;2023-05-07T07:12:22;19.20;97.90
16267;DHT22;8241;48.786;9.250;2023-05-07T07:14:50;19.50;97.40
16267;DHT22;8241;48.786;9.250;2023-05-07T07:17:17;19.60;96.10
16267;DHT22;8241;48.786;9.250;2023-05-07T07:19:43;19.60;96.20
16267;DHT22;8241;48.786;9.250;2023-05-07T07:22:10;19.70;95.70
16267;DHT22;8241;48.786;9.250;2023-05-07T07:24:38;19.70;95.90
16267;DHT22;8241;48.786;9.250;2023-05-07T07:27:07;19.80;95.80
16267;DHT22;8241;48.786;9.250;2023-05-07T07:29:37;19.90;95.10
16267;DHT22;8241;48.786;9.250;2023-05-07T07:32:04;20.30;95.10
16267;DHT22;8241;48.786;9.250;2023-05-07T07:34:31;20.70;99.90
16267;DHT22;8241;48.786;9.250;2023-05-07T07:37:00;20.90;99.90
16267;DHT22;8241;48.786;9.250;2023-05-07T07:39:31;21.10;99.90
16267;DHT22;8241;48.786;9.250;2023-05-07T07:42:00;21.50;99.90
16267;DHT22;8241;48.786;9.250;2023-05-07T07:44:29;22.10;99.90
16267;DHT22;8241;48.786;9.250;2023-05-07T07:47:01;21.80;99.90
16267;DHT22;8241;48.786;9.250;2023-05-07T07:51:58;22.80;99.90
16267;DHT22;8241;48.786;9.250;2023-05-07T07:54:26;23.10;97.50
16267;DHT22;8241;48.786;9.250;2023-05-07T07:56:53;23.50;95.10
16267;DHT22;8241;48.786;9.250;2023-05-07T07:59:20;24.00;95.40
16267;DHT22;8241;48.786;9.250;2023-05-07T08:01:48;24.50;94.40
16267;DHT22;8241;48.786;9.250;2023-05-07T08:04:18;24.50;93.30
16267;DHT22;8241;48.786;9.250;2023-05-07T08:06:45;24.60;93.20
16267;DHT22;8241;48.786;9.250;2023-05-07T08:09:12;25.00;95.50
16267;DHT22;8241;48.786;9.250;2023-05-07T08:11:40;24.80;91.90
16267;DHT22;8241;48.786;9.250;2023-05-07T08:14:07;24.60;91.80
16267;DHT22;8241;48.786;9.250;2023-05-07T08:16:34;24.70;92.40
16267;DHT22;8241;48.786;9.250;2023-05-07T08:19:01;25.00;92.80
16267;DHT22;8241;48.786;9.250;2023-05-07T08:21:30;25.60;92.20
16267;DHT22;8241;48.786;9.250;2023-05-07T08:23:57;25.80;91.80
16267;DHT22;8241;48.786;9.250;2023-05-07T08:26:23;26.10;90.60
16267;DHT22;8241;48.786;9.250;2023-05-07T08:28:51;25.50;90.10
16267;DHT22;8241;48.786;9.250;2023-05-07T08:33:45;26.80;90.60
16267;DHT22;8241;48.786;9.250;2023-05-07T08:36:11;27.40;87.50
16267;DHT22;8241;48.786;9.250;2023-05-07T08:38:40;29.00;92.10
16267;DHT22;8241;48.786;9.250;2023-05-07T08:41:09;29.20;77.10
16267;DHT22;8241;48.786;9.250;2023-05-07T08:43:36;29.10;78.80
16267;DHT22;8241;48.786;9.250;2023-05-07T08:46:04;28.80;80.20
16267;DHT22;8241;48.786;9.250;2023-05-07T08:48:35;28.70;80.10
16267;DHT22;8241;48.786;9.250;2023-05-07T08:51:06;29.30;80.50
16267;DHT22;8241;48.786;9.250;2023-05-07T08:53:34;29.20;80.30
16267;DHT22;8241;48.786;9.250;2023-05-07T08:56:03;29.90;80.20
16267;DHT22;8241;48.786;9.250;2023-05-07T08:58:30;31.20;79.50
16267;DHT22;8241;48.786;9.250;2023-05-07T09:00:57;32.70;76.70
16267;DHT22;8241;48.786;9.250;2023-05-07T09:03:24;34.20;91.50
16267;DHT22;8241;48.786;9.250;2023-05-07T09:05:54;34.20;79.10
16267;DHT22;8241;48.786;9.250;2023-05-07T09:08:24;34.30;78.40
16267;DHT22;8241;48.786;9.250;2023-05-07T09:10:51;36.30;75.20
16267;DHT22;8241;48.786;9.250;2023-05-07T09:13:19;36.90;75.10
16267;DHT22;8241;48.786;9.250;2023-05-07T09:15:46;37.80;77.50
16267;DHT22;8241;48.786;9.250;2023-05-07T09:18:14;37.60;88.30
16267;DHT22;8241;48.786;9.250;2023-05-07T09:20:41;37.80;72.60
16267;DHT22;8241;48.786;9.250;2023-05-07T09:23:08;38.00;74.30
16267;DHT22;8241;48.786;9.250;2023-05-07T09:25:36;38.10;75.80
16267;DHT22;8241;48.786;9.250;2023-05-07T09:28:11;37.20;57.50
16267;DHT22;8241;48.786;9.250;2023-05-07T09:30:40;37.60;63.70
16267;DHT22;8241;48.786;9.250;2023-05-07T09:33:09;38.30;69.90
16267;DHT22;8241;48.786;9.250;2023-05-07T09:35:39;37.80;77.00
16267;DHT22;8241;48.786;9.250;2023-05-07T09:38:10;37.60;78.30
16267;DHT22;8241;48.786;9.250;2023-05-07T09:40:37;37.50;76.50
16267;DHT22;8241;48.786;9.250;2023-05-07T09:43:09;36.50;80.20
16267;DHT22;8241;48.786;9.250;2023-05-07T09:45:37;36.50;84.20
16267;DHT22;8241;48.786;9.250;2023-05-07T09:48:07;36.80;79.20
16267;DHT22;8241;48.786;9.250;2023-05-07T09:50:35;37.90;75.80
16267;DHT22;8241;48.786;9.250;2023-05-07T10:08:04;34.40;92.60
16267;DHT22;8241;48.786;9.250;2023-05-07T10:10:35;32.80;63.90
16267;DHT22;8241;48.786;9.250;2023-05-07T10:13:05;31.50;65.60
16267;DHT22;8241;48.786;9.250;2023-05-07T10:15:37;30.40;66.70
16267;DHT22;8241;48.786;9.250;2023-05-07T10:18:05;30.00;68.20
16267;DHT22;8241;48.786;9.250;2023-05-07T10:20:33;29.60;69.50
16267;DHT22;8241;48.786;9.250;2023-05-07T10:23:00;29.60;70.40
16267;DHT22;8241;48.786;9.250;2023-05-07T10:25:37;29.20;70.60
16267;DHT22;8241;48.786;9.250;2023-05-07T10:28:12;28.80;71.10
16267;DHT22;8241;48.786;9.250;2023-05-07T10:30:46;28.80;71.20
16267;DHT22;8241;48.786;9.250;2023-05-07T10:33:16;28.60;71.40
16267;DHT22;8241;48.786;9.250;2023-05-07T10:35:45;28.40;72.00
16267;DHT22;8241;48.786;9.250;2023-05-07T10:38:14;28.10;72.90
16267;DHT22;8241;48.786;9.250;2023-05-07T10:40:45;27.90;72.40
16267;DHT22;8241;48.786;9.250;2023-05-07T10:43:12;28.30;73.40
16267;DHT22;8241;48.786;9.250;2023-05-07T10:48:28;28.50;73.50
16267;DHT22;8241;48.786;9.250;2023-05-07T10:53:42;28.10;71.40
16267;DHT22;8241;48.786;9.250;2023-05-07T10:56:26;28.00;72.20
16267;DHT22;8241;48.786;9.250;2023-05-07T11:01:55;28.40;71.80
16267;DHT22;8241;48.786;9.250;2023-05-07T11:07:33;28.20;71.50
16267;DHT22;8241;48.786;9.250;2023-05-07T11:10:05;28.30;71.10
16267;DHT22;8241;48.786;9.250;2023-05-07T11:12:53;28.60;72.60
16267;DHT22;8241;48.786;9.250;2023-05-07T11:15:42;28.70;72.40
16267;DHT22;8241;48.786;9.250;2023-05-07T11:18:17;28.80;71.50
16267;DHT22;8241;48.786;9.250;2023-05-07T11:20:56;29.20;72.10
16267;DHT22;8241;48.786;9.250;2023-05-07T11:23:56;29.50;70.60
16267;DHT22;8241;48.786;9.250;2023-05-07T11:26:47;29.50;69.20
16267;DHT22;8241;48.786;9.250;2023-05-07T11:29:19;29.60;70.90
16267;DHT22;8241;48.786;9.250;2023-05-07T11:31:48;29.50;70.40
16267;DHT22;8241;48.786;9.250;2023-05-07T11:34:20;29.30;71.00
16267;DHT22;8241;48.786;9.250;2023-05-07T11:36:47;29.10;71.20
16267;DHT22;8241;48.786;9.250;2023-05-07T11:39:26;28.80;72.20
16267;DHT22;8241;48.786;9.250;2023-05-07T11:41:56;28.50;72.40
16267;DHT22;8241;48.786;9.250;2023-05-07T11:47:18;27.70;73.50
16267;DHT22;8241;48.786;9.250;2023-05-07T11:49:45;27.10;75.40
16267;DHT22;8241;48.786;9.250;2023-05-07T11:52:13;26.90;76.00
16267;DHT22;8241;48.786;9.250;2023-05-07T11:54:40;26.70;76.20
16267;DHT22;8241;48.786;9.250;2023-05-07T11:57:07;26.60;76.80
16267;DHT22;8241;48.786;9.250;2023-05-07T11:59:40;26.40;76.30
16267;DHT22;8241;48.786;9.250;2023-05-07T12:04:41;26.30;80.50
16267;DHT22;8241;48.786;9.250;2023-05-07T12:07:11;26.10;85.80
16267;DHT22;8241;48.786;9.250;2023-05-07T12:09:38;25.70;76.50
16267;DHT22;8241;48.786;9.250;2023-05-07T12:12:05;25.60;77.50
16267;DHT22;8241;48.786;9.250;2023-05-07T12:14:32;25.40;78.00
16267;DHT22;8241;48.786;9.250;2023-05-07T12:17:00;25.30;78.20
16267;DHT22;8241;48.786;9.250;2023-05-07T12:19:28;25.00;80.00
16267;DHT22;8241;48.786;9.250;2023-05-07T12:21:57;24.80;81.80
16267;DHT22;8241;48.786;9.250;2023-05-07T12:24:25;24.80;83.70
16267;DHT22;8241;48.786;9.250;2023-05-07T12:26:52;24.60;90.10
16267;DHT22;8241;48.786;9.250;2023-05-07T12:29:21;24.10;90.20
16267;DHT22;8241;48.786;9.250;2023-05-07T12:31:49;23.60;93.30
16267;DHT22;8241;48.786;9.250;2023-05-07T12:34:16;23.00;93.30
16267;DHT22;8241;48.786;9.250;2023-05-07T12:36:43;22.00;93.00
16267;DHT22;8241;48.786;9.250;2023-05-07T12:39:12;21.20;93.10
16267;DHT22;8241;48.786;9.250;2023-05-07T12:41:54;21.20;99.90
16267;DHT22;8241;48.786;9.250;2023-05-07T12:44:22;21.10;99.90
16267;DHT22;8241;48.786;9.250;2023-05-07T12:46:50;21.20;99.90
16267;DHT22;8241;48.786;9.250;2023-05-07T12:49:18;21.00;99.90
16267;DHT22;8241;48.786;9.250;2023-05-07T12:51:46;21.10;99.90
16267;DHT22;8241;48.786;9.250;2023-05-07T12:54:27;20.90;99.90
16267;DHT22;8241;48.786;9.250;2023-05-07T12:59:31;20.60;99.90
16267;DHT22;8241;48.786;9.250;2023-05-07T13:01:58;20.50;99.90
16267;DHT22;8241;48.786;9.250;2023-05-07T13:04:25;20.30;99.90
16267;DHT22;8241;48.786;9.250;2023-05-07T13:06:52;20.30;99.90
16267;DHT22;8241;48.786;9.250;2023-05-07T13:11:48;19.10;99.90
16267;DHT22;8241;48.786;9.250;2023-05-07T13:14:16;18.50;99.90
16267;DHT22;8241;48.786;9.250;2023-05-07T13:16:43;18.10;99.90
16267;DHT22;8241;48.786;9.250;2023-05-07T13:19:10;18.00;99.90
16267;DHT22;8241;48.786;9.250;2023-05-07T13:21:37;18.00;99.90
16267;DHT22;8241;48.786;9.250;2023-05-07T13:24:17;17.80;99.90
16267;DHT22;8241;48.786;9.250;2023-05-07T13:26:54;17.90;99.90
16267;DHT22;8241;48.786;9.250;2023-05-07T13:29:23;18.00;99.90
16267;DHT22;8241;48.786;9.250;2023-05-07T13:31:56;17.30;99.90
16267;DHT22;8241;48.786;9.250;2023-05-07T13:36:53;16.70;99.90
16267;DHT22;8241;48.786;9.250;2023-05-07T13:39:20;16.90;99.90
16267;DHT22;8241;48.786;9.250;2023-05-07T13:41:47;17.00;99.90
16267;DHT22;8241;48.786;9.250;2023-05-07T13:44:16;17.10;99.90
16267;DHT22;8241;48.786;9.250;2023-05-07T13:46:42;17.30;99.90
16267;DHT22;8241;48.786;9.250;2023-05-07T13:49:10;17.20;99.90
16267;DHT22;8241;48.786;9.250;2023-05-07T13:51:38;17.00;99.90
16267;DHT22;8241;48.786;9.250;2023-05-07T13:54:07;17.10;99.90
16267;DHT22;8241;48.786;9.250;2023-05-07T13:56:59;17.20;99.90
16267;DHT22;8241;48.786;9.250;2023-05-07T13:59:27;17.20;99.90
16267;DHT22;8241;48.786;9.250;2023-05-07T14:01:54;17.30;99.90
16267;DHT22;8241;48.786;9.250;2023-05-07T14:04:21;17.30;99.90
16267;DHT22;8241;48.786;9.250;2023-05-07T14:06:48;17.30;99.90
16267;DHT22;8241;48.786;9.250;2023-05-07T14:09:15;17.30;99.90
16267;DHT22;8241;48.786;9.250;2023-05-07T14:11:42;17.10;99.90
16267;DHT22;8241;48.786;9.250;2023-05-07T14:14:10;16.80;99.90
16267;DHT22;8241;48.786;9.250;2023-05-07T14:16:38;16.70;99.90
16267;DHT22;8241;48.786;9.250;2023-05-07T14:19:05;16.50;99.90
16267;DHT22;8241;48.786;9.250;2023-05-07T14:21:32;16.50;99.90
16267;DHT22;8241;48.786;9.250;2023-05-07T14:23:59;16.60;99.90
16267;DHT22;8241;48.786;9.250;2023-05-07T14:26:26;16.70;99.90
16267;DHT22;8241;48.786;9.250;2023-05-07T14:28:53;16.60;99.90
16267;DHT22;8241;48.786;9.250;2023-05-07T14:31:23;16.60;99.90
16267;DHT22;8241;48.786;9.250;2023-05-07T14:33:51;16.60;99.90
16267;DHT22;8241;48.786;9.250;2023-05-07T14:36:19;16.60;99.90
16267;DHT22;8241;48.786;9.250;2023-05-07T14:38:48;16.60;99.90
16267;DHT22;8241;48.786;9.250;2023-05-07T14:41:15;16.70;99.90
16267;DHT22;8241;48.786;9.250;2023-05-07T14:43:42;16.70;99.90
16267;DHT22;8241;48.786;9.250;2023-05-07T14:46:15;16.60;99.90
16267;DHT22;8241;48.786;9.250;2023-05-07T14:48:43;16.60;99.90
16267;DHT22;8241;48.786;9.250;2023-05-07T14:51:12;16.60;99.90
16267;DHT22;8241;48.786;9.250;2023-05-07T14:53:41;16.80;99.90
16267;DHT22;8241;48.786;9.250;2023-05-07T14:56:08;16.90;99.90
16267;DHT22;8241;48.786;9.250;2023-05-07T14:58:35;17.00;99.90
16267;DHT22;8241;48.786;9.250;2023-05-07T15:01:07;17.10;99.90
16267;DHT22;8241;48.786;9.250;2023-05-07T15:03:35;17.20;99.90
16267;DHT22;8241;48.786;9.250;2023-05-07T15:06:05;17.20;99.90
16267;DHT22;8241;48.786;9.250;2023-05-07T15:08:39;17.10;99.90
16267;DHT22;8241;48.786;9.250;2023-05-07T15:11:06;17.00;99.90
16267;DHT22;8241;48.786;9.250;2023-05-07T15:13:33;17.00;99.90
16267;DHT22;8241;48.786;9.250;2023-05-07T15:16:00;17.10;99.90
16267;DHT22;8241;48.786;9.250;2023-05-07T15:18:28;17.20;99.90
16267;DHT22;8241;48.786;9.250;2023-05-07T15:20:55;17.30;99.90
16267;DHT22;8241;48.786;9.250;2023-05-07T15:23:23;17.40;99.90
16267;DHT22;8241;48.786;9.250;2023-05-07T15:25:53;17.40;99.90
16267;DHT22;8241;48.786;9.250;2023-05-07T15:28:20;17.30;99.90
16267;DHT22;8241;48.786;9.250;2023-05-07T15:30:47;17.40;99.90
16267;DHT22;8241;48.786;9.250;2023-05-07T15:33:14;17.40;99.90
16267;DHT22;8241;48.786;9.250;2023-05-07T15:35:41;17.50;99.90
16267;DHT22;8241;48.786;9.250;2023-05-07T15:38:11;17.50;99.90
16267;DHT22;8241;48.786;9.250;2023-05-07T15:40:50;17.60;99.90
16267;DHT22;8241;48.786;9.250;2023-05-07T15:43:19;17.70;99.90
16267;DHT22;8241;48.786;9.250;2023-05-07T15:45:46;17.70;99.90
16267;DHT22;8241;48.786;9.250;2023-05-07T15:48:19;17.70;99.90
16267;DHT22;8241;48.786;9.250;2023-05-07T15:50:46;17.70;99.90
16267;DHT22;8241;48.786;9.250;2023-05-07T15:53:13;17.70;99.90
16267;DHT22;8241;48.786;9.250;2023-05-07T15:55:41;17.80;99.90
16267;DHT22;8241;48.786;9.250;2023-05-07T15:58:09;17.80;99.90
16267;DHT22;8241;48.786;9.250;2023-05-07T16:00:37;17.80;99.90
16267;DHT22;8241;48.786;9.250;2023-05-07T16:03:06;17.70;99.90
16267;DHT22;8241;48.786;9.250;2023-05-07T16:05:33;17.70;99.90
16267;DHT22;8241;48.786;9.250;2023-05-07T16:08:10;17.70;99.90
16267;DHT22;8241;48.786;9.250;2023-05-07T16:10:37;17.70;99.90
16267;DHT22;8241;48.786;9.250;2023-05-07T16:13:04;17.70;99.90
16267;DHT22;8241;48.786;9.250;2023-05-07T16:15:31;17.70;99.90
16267;DHT22;8241;48.786;9.250;2023-05-07T16:18:00;17.70;99.90
16267;DHT22;8241;48.786;9.250;2023-05-07T16:20:28;17.70;99.90
16267;DHT22;8241;48.786;9.250;2023-05-07T16:22:55;17.60;99.90
16267;DHT22;8241;48.786;9.250;2023-05-07T16:25:22;17.60;99.90
16267;DHT22;8241;48.786;9.250;2023-05-07T16:27:51;17.40;99.90
16267;DHT22;8241;48.786;9.250;2023-05-07T16:30:18;17.20;99.90
16267;DHT22;8241;48.786;9.250;2023-05-07T16:32:46;17.20;99.90
16267;DHT22;8241;48.786;9.250;2023-05-07T16:35:14;17.20;99.90
16267;DHT22;8241;48.786;9.250;2023-05-07T16:37:41;17.20;99.90
16267;DHT22;8241;48.786;9.250;2023-05-07T16:40:09;17.30;99.90
16267;DHT22;8241;48.786;9.250;2023-05-07T16:42:37;17.50;99.90
16267;DHT22;8241;48.786;9.250;2023-05-07T16:45:05;17.50;99.90
16267;DHT22;8241;48.786;9.250;2023-05-07T16:47:32;17.50;99.90
16267;DHT22;8241;48.786;9.250;2023-05-07T16:49:59;17.60;99.90
16267;DHT22;8241;48.786;9.250;2023-05-07T16:52:31;17.60;99.90
16267;DHT22;8241;48.786;9.250;2023-05-07T16:54:58;17.60;99.90
16267;DHT22;8241;48.786;9.250;2023-05-07T16:57:26;17.60;99.90
16267;DHT22;8241;48.786;9.250;2023-05-07T16:59:55;17.60;99.90
16267;DHT22;8241;48.786;9.250;2023-05-07T17:02:23;17.60;99.90
16267;DHT22;8241;48.786;9.250;2023-05-07T17:04:50;16.80;99.90
16267;DHT22;8241;48.786;9.250;2023-05-07T17:07:17;17.50;99.90
16267;DHT22;8241;48.786;9.250;2023-05-07T17:09:46;17.60;99.90
16267;DHT22;8241;48.786;9.250;2023-05-07T17:12:13;17.60;99.90